createdAt,value
2018-04-16T00:00:32.580Z,26.97
2018-04-16T00:02:59.628Z,26.43
2018-04-16T00:05:26.653Z,27.93
2018-04-16T00:07:54.444Z,29.60
2018-04-16T00:10:21.495Z,24.87
2018-04-16T00:12:48.545Z,29.07
2018-04-16T00:15:15.617Z,29.03
2018-04-16T00:17:42.630Z,28.10
2018-04-16T00:20:09.685Z,26.57
2018-04-16T00:22:36.737Z,29.60
2018-04-16T00:25:03.773Z,27.93
2018-04-16T00:27:30.821Z,25.37
2018-04-16T00:29:57.858Z,26.57
2018-04-16T00:32:30.974Z,28.07
2018-04-16T00:35:04.193Z,27.30
2018-04-16T00:37:37.337Z,26.10
2018-04-16T00:40:10.476Z,25.40
2018-04-16T00:42:44.338Z,25.90
2018-04-16T00:45:17.348Z,25.17
2018-04-16T00:47:50.519Z,25.87
2018-04-16T00:50:23.573Z,27.20
2018-04-16T00:52:56.748Z,25.87
2018-04-16T00:55:29.756Z,25.83
2018-04-16T00:58:02.790Z,27.67
2018-04-16T01:00:36.036Z,27.17
2018-04-16T01:03:09.874Z,28.07
2018-04-16T01:05:42.949Z,29.83
2018-04-16T01:08:16.730Z,29.20
2018-04-16T01:10:49.737Z,29.30
2018-04-16T01:13:23.566Z,30.20
2018-04-16T01:15:56.648Z,29.20
2018-04-16T01:18:29.733Z,28.87
2018-04-16T01:21:02.877Z,29.17
2018-04-16T01:26:33.464Z,32.50
2018-04-16T01:29:07.363Z,28.30
2018-04-16T01:31:40.353Z,28.67
2018-04-16T01:34:13.456Z,29.27
2018-04-16T01:36:46.665Z,26.43
2018-04-16T01:39:19.745Z,26.30
2018-04-16T01:41:52.776Z,27.37
2018-04-16T01:44:26.679Z,27.40
2018-04-16T01:47:00.630Z,27.50
2018-04-16T01:49:33.751Z,29.00
2018-04-16T01:52:06.872Z,29.23
2018-04-16T01:54:40.616Z,27.83
2018-04-16T01:57:13.672Z,28.50
2018-04-16T02:02:47.978Z,28.37
2018-04-16T02:05:21.055Z,27.50
2018-04-16T02:07:54.056Z,28.63
2018-04-16T02:10:27.197Z,28.83
2018-04-16T02:13:00.893Z,29.93
2018-04-16T02:15:33.892Z,28.67
2018-04-16T02:18:07.000Z,27.53
2018-04-16T02:23:37.928Z,26.93
2018-04-16T02:26:10.912Z,31.23
2018-04-16T02:28:44.013Z,27.20
2018-04-16T02:31:17.053Z,26.70
2018-04-16T02:33:50.153Z,28.07
2018-04-16T02:36:24.044Z,28.10
2018-04-16T02:38:57.209Z,30.83
2018-04-16T02:41:30.281Z,30.90
2018-04-16T02:44:03.245Z,29.23
2018-04-16T02:46:37.157Z,29.27
2018-04-16T02:49:10.303Z,30.13
2018-04-16T02:51:43.402Z,28.30
2018-04-16T02:54:16.674Z,28.60
2018-04-16T02:56:49.668Z,28.97
2018-04-16T02:59:22.913Z,29.80
2018-04-16T03:01:56.076Z,29.80
2018-04-16T03:04:30.008Z,30.50
2018-04-16T03:07:03.068Z,31.27
2018-04-16T03:09:36.112Z,30.13
2018-04-16T03:12:09.216Z,28.63
2018-04-16T03:14:42.412Z,28.50
2018-04-16T03:17:15.528Z,28.23
2018-04-16T03:19:48.593Z,28.80
2018-04-16T03:25:22.461Z,29.90
2018-04-16T03:30:53.808Z,29.53
2018-04-16T03:33:26.925Z,25.60
2018-04-16T03:36:00.679Z,26.77
2018-04-16T03:38:33.655Z,26.93
2018-04-16T03:41:06.761Z,27.80
2018-04-16T03:43:39.864Z,28.13
2018-04-16T03:46:13.827Z,29.10
2018-04-16T03:48:46.802Z,28.33
2018-04-16T03:53:49.283Z,26.90
2018-04-16T03:56:17.026Z,29.87
2018-04-16T03:58:44.040Z,29.40
2018-04-16T04:01:11.096Z,29.23
2018-04-16T04:03:38.071Z,27.50
2018-04-16T04:06:05.834Z,29.10
2018-04-16T04:08:33.608Z,29.20
2018-04-16T04:11:01.713Z,26.80
2018-04-16T04:13:28.728Z,30.50
2018-04-16T04:15:56.484Z,31.07
2018-04-16T04:18:24.276Z,31.87
2018-04-16T04:20:52.023Z,29.30
2018-04-16T04:23:38.149Z,30.43
2018-04-16T04:26:23.954Z,30.77
2018-04-16T04:29:09.765Z,32.00
2018-04-16T04:31:36.966Z,30.63
2018-04-16T04:34:04.028Z,31.27
2018-04-16T04:36:31.128Z,30.17
2018-04-16T04:38:58.129Z,30.43
2018-04-16T04:41:25.160Z,28.40
2018-04-16T04:43:52.538Z,32.70
2018-04-16T04:46:19.652Z,30.60
2018-04-16T04:48:46.678Z,32.20
2018-04-16T04:51:13.673Z,33.50
2018-04-16T04:53:40.704Z,31.47
2018-04-16T04:56:07.721Z,31.87
2018-04-16T04:58:34.732Z,31.30
2018-04-16T05:01:01.741Z,31.60
2018-04-16T05:03:29.272Z,30.93
2018-04-16T05:05:56.304Z,31.30
2018-04-16T05:08:23.313Z,31.20
2018-04-16T05:10:50.365Z,30.60
2018-04-16T05:13:17.398Z,34.07
2018-04-16T05:15:44.399Z,30.40
2018-04-16T05:18:12.168Z,31.80
2018-04-16T05:20:40.207Z,32.50
2018-04-16T05:23:07.302Z,34.53
2018-04-16T05:25:34.506Z,31.50
2018-04-16T05:28:01.600Z,31.03
2018-04-16T05:30:29.380Z,33.63
2018-04-16T05:32:56.417Z,32.27
2018-04-16T05:35:23.627Z,30.20
2018-04-16T05:37:51.350Z,31.80
2018-04-16T05:40:18.355Z,32.40
2018-04-16T05:42:46.125Z,32.90
2018-04-16T05:45:13.864Z,33.40
2018-04-16T05:47:40.909Z,32.83
2018-04-16T05:50:07.939Z,31.73
2018-04-16T05:52:34.952Z,32.03
2018-04-16T05:55:02.037Z,34.20
2018-04-16T05:57:29.040Z,32.47
2018-04-16T05:59:56.080Z,32.03
2018-04-16T06:02:23.832Z,30.40
2018-04-16T06:04:50.869Z,31.00
2018-04-16T06:07:18.648Z,30.17
2018-04-16T06:09:45.711Z,30.00
2018-04-16T06:12:12.777Z,31.30
2018-04-16T06:14:39.924Z,32.97
2018-04-16T06:17:07.713Z,33.13
2018-04-16T06:19:34.728Z,33.87
2018-04-16T06:22:01.765Z,34.37
2018-04-16T06:24:29.540Z,35.73
2018-04-16T06:26:56.755Z,33.67
2018-04-16T06:29:23.849Z,33.60
2018-04-16T06:31:51.030Z,29.37
2018-04-16T06:34:18.099Z,32.67
2018-04-16T06:36:45.873Z,35.97
2018-04-16T06:39:12.869Z,33.47
2018-04-16T06:41:39.917Z,31.90
2018-04-16T06:44:06.912Z,33.73
2018-04-16T06:46:34.664Z,33.30
2018-04-16T06:49:01.829Z,34.00
2018-04-16T06:51:29.051Z,34.00
2018-04-16T06:53:56.316Z,32.60
2018-04-16T06:56:24.185Z,36.73
2018-04-16T06:58:52.052Z,34.50
2018-04-16T07:01:19.096Z,34.10
2018-04-16T07:03:46.645Z,37.00
2018-04-16T07:06:13.897Z,32.40
2018-04-16T07:08:41.193Z,33.73
2018-04-16T07:11:08.291Z,33.70
2018-04-16T07:13:35.314Z,35.80
2018-04-16T07:16:02.818Z,33.90
2018-04-16T07:18:30.484Z,34.87
2018-04-16T07:20:58.263Z,36.93
2018-04-16T07:23:25.312Z,37.17
2018-04-16T07:25:53.161Z,33.30
2018-04-16T07:28:20.935Z,32.87
2018-04-16T07:30:48.708Z,32.23
2018-04-16T07:33:16.495Z,31.60
2018-04-16T07:35:43.519Z,32.93
2018-04-16T07:38:11.280Z,30.83
2018-04-16T07:40:38.271Z,34.13
2018-04-16T07:43:05.279Z,34.10
2018-04-16T07:45:32.325Z,35.63
2018-04-16T07:47:59.544Z,38.27
2018-04-16T07:50:27.320Z,34.73
2018-04-16T07:52:54.329Z,36.67
2018-04-16T07:55:21.371Z,36.63
2018-04-16T07:57:48.401Z,36.83
2018-04-16T08:00:15.713Z,36.60
2018-04-16T08:02:42.716Z,35.60
2018-04-16T08:05:09.712Z,37.20
2018-04-16T08:07:37.476Z,37.90
2018-04-16T08:10:05.026Z,35.67
2018-04-16T08:12:32.044Z,39.30
2018-04-16T08:14:59.051Z,38.50
2018-04-16T08:17:26.056Z,37.53
2018-04-16T08:19:53.060Z,38.23
2018-04-16T08:22:20.114Z,36.13
2018-04-16T08:24:47.131Z,33.37
2018-04-16T08:27:14.876Z,34.20
2018-04-16T08:29:41.884Z,33.17
2018-04-16T08:32:09.261Z,31.47
2018-04-16T08:34:37.048Z,33.07
2018-04-16T08:37:04.852Z,32.50
2018-04-16T08:39:31.856Z,34.23
2018-04-16T08:41:59.612Z,33.57
2018-04-16T08:44:26.992Z,32.97
2018-04-16T08:46:54.833Z,31.80
2018-04-16T08:49:21.876Z,32.57
2018-04-16T08:51:48.904Z,32.77
2018-04-16T08:54:15.900Z,33.50
2018-04-16T08:56:42.909Z,33.53
2018-04-16T08:59:10.680Z,31.70
2018-04-16T09:01:38.032Z,32.40
2018-04-16T09:04:05.112Z,32.57
2018-04-16T09:06:32.260Z,29.20
2018-04-16T09:09:00.233Z,30.97
2018-04-16T09:11:28.362Z,28.77
2018-04-16T09:13:55.403Z,29.17
2018-04-16T09:16:22.455Z,28.20
2018-04-16T09:18:49.557Z,28.40
2018-04-16T09:21:17.375Z,29.97
2018-04-16T09:23:44.396Z,29.23
2018-04-16T09:26:11.433Z,27.37
2018-04-16T09:28:38.458Z,26.33
2018-04-16T09:31:05.472Z,26.40
2018-04-16T09:33:32.503Z,29.80
2018-04-16T09:35:59.502Z,27.40
2018-04-16T09:38:26.572Z,24.73
2018-04-16T09:40:53.655Z,28.03
2018-04-16T09:43:20.672Z,30.27
2018-04-16T09:45:48.441Z,30.00
2018-04-16T09:48:15.790Z,29.03
2018-04-16T09:50:42.792Z,27.83
2018-04-16T09:53:10.553Z,27.53
2018-04-16T09:55:38.336Z,28.07
2018-04-16T09:58:06.362Z,28.07
2018-04-16T10:00:39.475Z,27.07
2018-04-16T10:03:06.568Z,24.57
2018-04-16T10:05:33.720Z,26.83
2018-04-16T10:08:00.980Z,26.03
2018-04-16T10:10:28.020Z,26.50
2018-04-16T10:12:55.009Z,24.50
2018-04-16T10:15:22.156Z,24.93
2018-04-16T10:17:49.523Z,25.80
2018-04-16T10:20:16.869Z,26.83
2018-04-16T10:22:43.931Z,25.17
2018-04-16T10:25:18.145Z,25.87
2018-04-16T10:27:45.482Z,24.70
2018-04-16T10:30:12.708Z,23.87
2018-04-16T10:32:40.004Z,22.30
2018-04-16T10:35:07.204Z,23.10
2018-04-16T10:37:34.312Z,23.73
2018-04-16T10:40:01.447Z,21.83
2018-04-16T10:42:28.681Z,22.60
2018-04-16T10:44:55.749Z,24.23
2018-04-16T10:47:24.044Z,23.43
2018-04-16T10:49:51.253Z,24.43
2018-04-16T10:52:19.089Z,23.50
2018-04-16T10:54:46.249Z,21.30
2018-04-16T10:57:14.137Z,20.30
2018-04-16T10:59:42.012Z,24.77
2018-04-16T11:02:09.188Z,22.00
2018-04-16T11:04:36.664Z,24.03
2018-04-16T11:07:03.852Z,20.90
2018-04-16T11:09:31.003Z,23.93
2018-04-16T11:11:58.184Z,21.87
2018-04-16T11:14:26.224Z,20.10
2018-04-16T11:16:53.624Z,22.50
2018-04-16T11:19:20.743Z,19.27
2018-04-16T11:21:47.850Z,21.87
2018-04-16T11:24:14.954Z,23.20
2018-04-16T11:26:42.769Z,22.70
2018-04-16T11:29:10.044Z,22.53
2018-04-16T11:31:37.882Z,21.27
2018-04-16T11:34:04.939Z,21.10
2018-04-16T11:36:32.065Z,18.23
2018-04-16T11:38:59.192Z,18.87
2018-04-16T11:41:27.165Z,19.60
2018-04-16T11:43:54.221Z,16.77
2018-04-16T11:46:21.410Z,17.00
2018-04-16T11:48:48.621Z,18.30
2018-04-16T11:51:15.784Z,16.97
2018-04-16T11:53:43.101Z,17.67
2018-04-16T11:56:10.314Z,17.43
2018-04-16T12:01:27.288Z,18.13
2018-04-16T12:03:54.373Z,19.60
2018-04-16T12:06:21.547Z,18.23
2018-04-16T12:08:48.811Z,18.60
2018-04-16T12:11:16.625Z,18.20
2018-04-16T12:13:43.755Z,14.33
2018-04-16T12:16:18.710Z,18.47
2018-04-16T12:18:46.041Z,16.77
2018-04-16T12:21:13.825Z,18.17
2018-04-16T12:23:40.996Z,17.33
2018-04-16T12:26:08.281Z,17.60
2018-04-16T12:28:36.177Z,17.40
2018-04-16T12:31:03.410Z,17.67
2018-04-16T12:33:31.635Z,18.20
2018-04-16T12:35:58.808Z,16.60
2018-04-16T12:38:26.157Z,19.00
2018-04-16T12:40:53.300Z,21.07
2018-04-16T12:43:20.344Z,19.93
2018-04-16T12:45:47.353Z,20.10
2018-04-16T12:48:15.133Z,19.77
2018-04-16T12:50:42.872Z,19.70
2018-04-16T12:53:09.991Z,17.37
2018-04-16T12:55:37.009Z,20.03
2018-04-16T12:58:04.033Z,18.70
2018-04-16T13:00:31.791Z,19.60
2018-04-16T13:02:59.540Z,18.07
2018-04-16T13:05:26.549Z,18.80
2018-04-16T13:07:53.658Z,18.07
2018-04-16T13:10:21.124Z,18.87
2018-04-16T13:12:49.558Z,21.27
2018-04-16T13:15:16.716Z,19.97
2018-04-16T13:17:43.974Z,17.93
2018-04-16T13:20:11.185Z,19.47
2018-04-16T13:22:38.345Z,18.20
2018-04-16T13:25:05.504Z,17.40
2018-04-16T13:27:32.591Z,18.70
2018-04-16T13:30:00.451Z,19.10
2018-04-16T13:32:27.711Z,18.67
2018-04-16T13:34:54.825Z,19.60
2018-04-16T13:37:21.922Z,16.93
2018-04-16T13:39:49.289Z,21.17
2018-04-16T13:42:16.376Z,19.80
2018-04-16T13:44:44.179Z,18.27
2018-04-16T13:47:11.966Z,16.90
2018-04-16T13:49:38.994Z,18.60
2018-04-16T13:52:05.980Z,18.93
2018-04-16T13:54:32.997Z,19.90
2018-04-16T13:57:00.732Z,20.23
2018-04-16T13:59:27.940Z,18.93
2018-04-16T14:01:54.961Z,19.70
2018-04-16T14:04:22.744Z,20.60
2018-04-16T14:06:50.017Z,21.20
2018-04-16T14:09:17.132Z,18.20
2018-04-16T14:11:44.141Z,17.60
2018-04-16T14:14:11.184Z,19.60
2018-04-16T14:16:38.624Z,19.10
2018-04-16T14:19:05.787Z,19.10
2018-04-16T14:21:32.984Z,19.37
2018-04-16T14:24:00.097Z,18.87
2018-04-16T14:26:27.160Z,19.90
2018-04-16T14:28:54.579Z,19.80
2018-04-16T14:31:21.775Z,20.10
2018-04-16T14:33:49.001Z,17.80
2018-04-16T14:36:16.086Z,21.37
2018-04-16T14:38:43.260Z,19.60
2018-04-16T14:41:10.341Z,21.17
2018-04-16T14:43:37.372Z,17.57
2018-04-16T14:46:04.513Z,17.90
2018-04-16T14:48:31.552Z,20.87
2018-04-16T14:50:58.560Z,20.93
2018-04-16T14:53:25.623Z,19.57
2018-04-16T14:55:52.665Z,20.57
2018-04-16T14:58:19.729Z,19.73
2018-04-16T15:00:46.815Z,21.57
2018-04-16T15:03:13.977Z,20.03
2018-04-16T15:05:41.097Z,20.60
2018-04-16T15:08:08.145Z,17.90
2018-04-16T15:10:35.172Z,18.00
2018-04-16T15:13:02.220Z,19.80
2018-04-16T15:15:29.313Z,20.07
2018-04-16T15:17:56.426Z,21.10
2018-04-16T15:20:23.444Z,19.03
2018-04-16T15:22:50.456Z,22.13
2018-04-16T15:25:17.525Z,19.73
2018-04-16T15:27:45.284Z,21.70
2018-04-16T15:30:12.345Z,21.83
2018-04-16T15:32:40.108Z,20.37
2018-04-16T15:35:07.877Z,22.27
2018-04-16T15:37:35.670Z,21.47
2018-04-16T15:40:02.736Z,21.43
2018-04-16T15:42:30.032Z,19.83
2018-04-16T15:44:57.113Z,18.40
2018-04-16T15:47:24.128Z,18.40
2018-04-16T15:49:51.153Z,19.03
2018-04-16T15:52:18.155Z,18.90
2018-04-16T15:54:45.213Z,16.47
2018-04-16T15:57:12.252Z,21.00
2018-04-16T15:59:39.284Z,18.50
2018-04-16T16:02:06.620Z,23.27
2018-04-16T16:04:33.860Z,22.93
2018-04-16T16:07:01.669Z,22.60
2018-04-16T16:09:28.823Z,18.33
2018-04-16T16:11:56.013Z,18.37
2018-04-16T16:14:23.294Z,21.30
2018-04-16T16:16:50.400Z,17.90
2018-04-16T16:19:17.641Z,14.50
2018-04-16T16:21:44.960Z,15.33
2018-04-16T16:24:12.060Z,15.87
2018-04-16T16:26:39.262Z,13.53
2018-04-16T16:29:06.565Z,15.87
2018-04-16T16:31:33.642Z,16.37
2018-04-16T16:34:01.557Z,14.57
2018-04-16T16:36:28.655Z,16.13
2018-04-16T16:38:56.428Z,13.63
2018-04-16T16:41:23.489Z,14.90
2018-04-16T16:43:50.729Z,14.00
2018-04-16T16:46:17.892Z,14.93
2018-04-16T16:48:44.929Z,15.63
2018-04-16T16:51:12.220Z,15.40
2018-04-16T16:53:39.323Z,15.87
2018-04-16T16:56:06.438Z,13.70
2018-04-16T16:58:33.624Z,13.40
2018-04-16T17:01:00.840Z,12.73
2018-04-16T17:03:28.089Z,13.27
2018-04-16T17:05:55.445Z,13.43
2018-04-16T17:08:23.409Z,12.73
2018-04-16T17:10:51.485Z,12.97
2018-04-16T17:13:19.296Z,13.70
2018-04-16T17:15:46.446Z,13.87
2018-04-16T17:18:13.618Z,15.03
2018-04-16T17:20:41.161Z,12.00
2018-04-16T17:23:08.336Z,14.00
2018-04-16T17:25:35.565Z,12.70
2018-04-16T17:28:02.725Z,12.67
2018-04-16T17:30:29.813Z,11.10
2018-04-16T17:32:56.995Z,14.70
2018-04-16T17:35:25.166Z,13.97
2018-04-16T17:37:52.322Z,13.80
2018-04-16T17:40:19.397Z,13.00
2018-04-16T17:42:47.204Z,13.07
2018-04-16T17:45:15.004Z,13.97
2018-04-16T17:47:42.789Z,14.40
2018-04-16T17:50:09.918Z,13.80
2018-04-16T17:52:37.129Z,13.73
2018-04-16T17:55:04.308Z,15.77
2018-04-16T17:57:31.441Z,13.53
2018-04-16T17:59:58.633Z,16.20
2018-04-16T18:02:25.695Z,14.33
2018-04-16T18:04:52.731Z,15.33
2018-04-16T18:07:20.511Z,14.63
2018-04-16T18:09:47.618Z,17.40
2018-04-16T18:12:14.614Z,16.40
2018-04-16T18:14:41.831Z,13.90
2018-04-16T18:17:09.743Z,16.27
2018-04-16T18:19:36.859Z,16.37
2018-04-16T18:22:03.954Z,18.10
2018-04-16T18:24:31.785Z,17.97
2018-04-16T18:26:58.958Z,16.90
2018-04-16T18:29:26.090Z,16.93
2018-04-16T18:31:54.037Z,15.73
2018-04-16T18:34:21.108Z,16.97
2018-04-16T18:36:48.168Z,16.13
2018-04-16T18:39:16.341Z,15.53
2018-04-16T18:41:43.510Z,14.20
2018-04-16T18:44:11.305Z,13.80
2018-04-16T18:46:39.160Z,15.27
2018-04-16T18:49:06.184Z,13.30
2018-04-16T18:51:33.198Z,14.27
2018-04-16T18:54:00.372Z,26.27
2018-04-16T18:56:27.617Z,19.00
2018-04-16T18:58:54.708Z,18.33
2018-04-16T19:01:21.713Z,17.07
2018-04-16T19:03:48.711Z,17.80
2018-04-16T19:06:15.759Z,18.33
2018-04-16T19:08:42.760Z,16.07
2018-04-16T19:11:10.523Z,17.20
2018-04-16T19:13:37.608Z,18.90
2018-04-16T19:16:04.884Z,19.23
2018-04-16T19:18:32.020Z,17.97
2018-04-16T19:21:05.244Z,15.33
2018-04-16T19:23:32.365Z,16.60
2018-04-16T19:25:59.525Z,17.83
2018-04-16T19:28:26.690Z,16.47
2018-04-16T19:30:53.927Z,17.13
2018-04-16T19:33:27.344Z,15.43
2018-04-16T19:35:55.439Z,15.50
2018-04-16T19:38:24.314Z,15.20
2018-04-16T19:40:51.445Z,13.50
2018-04-16T19:43:18.529Z,16.13
2018-04-16T19:45:46.515Z,15.30
2018-04-16T19:48:13.832Z,15.73
2018-04-16T19:50:40.836Z,15.90
2018-04-16T19:53:07.932Z,13.50
2018-04-16T19:55:41.889Z,13.77
2018-04-16T19:58:15.165Z,14.80
2018-04-16T20:00:42.984Z,12.10
2018-04-16T20:03:16.078Z,13.73
2018-04-16T20:05:44.077Z,12.97
2018-04-16T20:08:11.900Z,11.30
2018-04-16T20:10:39.096Z,11.10
2018-04-16T20:13:06.223Z,12.87
2018-04-16T20:15:34.277Z,12.70
2018-04-16T20:18:01.431Z,12.30
2018-04-16T20:20:29.213Z,12.60
2018-04-16T20:22:56.481Z,11.70
2018-04-16T20:25:23.509Z,12.13
2018-04-16T20:27:50.785Z,10.57
2018-04-16T20:30:17.978Z,11.93
2018-04-16T20:32:45.844Z,10.23
2018-04-16T20:35:12.916Z,12.53
2018-04-16T20:37:40.989Z,10.90
2018-04-16T20:40:08.844Z,10.50
2018-04-16T20:42:35.848Z,8.80
2018-04-16T20:45:02.941Z,9.83
2018-04-16T20:47:29.965Z,10.30
2018-04-16T20:49:57.000Z,8.80
2018-04-16T20:52:24.000Z,8.17
2018-04-16T20:54:51.763Z,8.17
2018-04-16T20:57:18.769Z,6.20
2018-04-16T20:59:45.812Z,6.90
2018-04-16T21:02:12.835Z,7.00
2018-04-16T21:04:39.844Z,7.27
2018-04-16T21:07:06.888Z,8.23
2018-04-16T21:12:06.700Z,7.53
2018-04-16T21:14:33.921Z,8.83
2018-04-16T21:17:00.948Z,8.53
2018-04-16T21:19:28.744Z,8.47
2018-04-16T21:21:55.792Z,7.83
2018-04-16T21:24:22.840Z,8.43
2018-04-16T21:26:49.877Z,8.33
2018-04-16T21:29:16.915Z,6.87
2018-04-16T21:31:43.960Z,7.30
2018-04-16T21:34:10.977Z,6.87
2018-04-16T21:36:38.012Z,6.60
2018-04-16T21:39:06.145Z,6.67
2018-04-16T21:41:33.165Z,8.40
2018-04-16T21:44:00.192Z,5.60
2018-04-16T21:46:27.224Z,6.30
2018-04-16T21:48:54.333Z,6.10
2018-04-16T21:51:22.059Z,6.27
2018-04-16T21:53:49.833Z,5.70
2018-04-16T21:56:16.815Z,6.10
2018-04-16T21:58:43.807Z,6.40
2018-04-16T22:01:10.819Z,7.20
2018-04-16T22:03:37.798Z,6.27
2018-04-16T22:06:05.040Z,5.80
2018-04-16T22:08:32.142Z,8.07
2018-04-16T22:10:59.154Z,6.33
2018-04-16T22:13:26.916Z,6.70
2018-04-16T22:15:54.656Z,6.50
2018-04-16T22:18:21.698Z,6.47
2018-04-16T22:20:48.706Z,6.60
2018-04-16T22:23:15.730Z,7.10
2018-04-16T22:25:42.986Z,6.50
2018-04-16T22:28:10.010Z,6.03
2018-04-16T22:30:37.035Z,6.50
2018-04-16T22:33:04.772Z,5.93
2018-04-16T22:35:31.752Z,6.60
2018-04-16T22:37:58.754Z,6.30
2018-04-16T22:40:26.029Z,5.50
2018-04-16T22:42:53.151Z,5.90
2018-04-16T22:45:20.157Z,6.60
2018-04-16T22:47:47.157Z,5.70
2018-04-16T22:50:14.880Z,6.37
2018-04-16T22:52:42.624Z,5.37
2018-04-16T22:55:09.681Z,5.73
2018-04-16T22:57:36.687Z,6.10
2018-04-16T23:00:03.747Z,5.70
2018-04-16T23:02:30.846Z,5.73
2018-04-16T23:04:57.856Z,6.23
2018-04-16T23:07:24.985Z,6.87
2018-04-16T23:09:51.997Z,7.00
2018-04-16T23:12:19.727Z,6.33
2018-04-16T23:14:47.540Z,6.17
2018-04-16T23:17:14.563Z,6.53
2018-04-16T23:19:42.356Z,7.13
2018-04-16T23:22:09.418Z,6.30
2018-04-16T23:24:36.575Z,6.17
2018-04-16T23:27:03.700Z,7.37
2018-04-16T23:29:31.613Z,6.13
2018-04-16T23:31:59.404Z,6.60
2018-04-16T23:34:27.152Z,6.00
2018-04-16T23:36:54.174Z,5.90
2018-04-16T23:39:21.203Z,6.30
2018-04-16T23:41:48.183Z,7.03
2018-04-16T23:44:15.212Z,7.20
2018-04-16T23:46:42.234Z,6.43
2018-04-16T23:49:09.368Z,7.30
2018-04-16T23:51:37.128Z,6.57
2018-04-16T23:54:04.157Z,6.40
2018-04-16T23:56:31.926Z,6.87
2018-04-16T23:58:58.924Z,6.90
